createdAt,value
2019-05-02T00:01:31.684Z,38.13
2019-05-02T00:03:58.431Z,40.40
2019-05-02T00:06:25.675Z,47.90
2019-05-02T00:08:52.220Z,48.40
2019-05-02T00:11:18.930Z,39.03
2019-05-02T00:13:46.475Z,41.13
2019-05-02T00:16:14.133Z,52.53
2019-05-02T00:18:41.081Z,42.67
2019-05-02T00:21:08.284Z,42.20
2019-05-02T00:23:34.657Z,44.53
2019-05-02T00:26:01.370Z,39.70
2019-05-02T00:28:28.211Z,42.17
2019-05-02T00:30:54.923Z,46.00
2019-05-02T00:33:21.280Z,46.77
2019-05-02T00:35:47.717Z,45.40
2019-05-02T00:38:14.135Z,42.30
2019-05-02T00:40:40.795Z,49.43
2019-05-02T00:43:07.156Z,41.13
2019-05-02T00:45:33.481Z,48.77
2019-05-02T00:48:10.927Z,44.00
2019-05-02T00:50:40.728Z,43.00
2019-05-02T00:53:11.900Z,52.00
2019-05-02T01:00:05.515Z,46.10
2019-05-02T01:02:40.615Z,52.60
2019-05-02T01:05:07.880Z,55.17
2019-05-02T01:07:34.220Z,48.40
2019-05-02T01:10:00.554Z,52.27
2019-05-02T01:12:27.090Z,59.50
2019-05-02T01:14:53.422Z,50.47
2019-05-02T01:17:19.784Z,48.23
2019-05-02T01:19:47.155Z,54.30
2019-05-02T01:22:15.865Z,50.63
2019-05-02T01:24:43.435Z,52.50
2019-05-02T01:27:14.598Z,45.73
2019-05-02T01:29:51.647Z,56.10
2019-05-02T01:32:38.240Z,54.90
2019-05-02T01:35:19.495Z,54.57
2019-05-02T01:38:04.541Z,53.33
2019-05-02T01:40:30.888Z,50.70
2019-05-02T01:43:02.892Z,56.17
2019-05-02T01:45:29.262Z,50.30
2019-05-02T01:47:55.882Z,47.77
2019-05-02T01:50:22.270Z,55.07
2019-05-02T01:52:48.563Z,53.63
2019-05-02T01:55:17.078Z,53.63
2019-05-02T01:57:44.751Z,49.30
2019-05-02T02:00:12.675Z,53.77
2019-05-02T02:02:38.992Z,49.77
2019-05-02T02:05:05.675Z,54.40
2019-05-02T02:07:31.974Z,48.80
2019-05-02T02:09:58.383Z,55.63
2019-05-02T02:12:24.665Z,53.10
2019-05-02T02:14:53.452Z,51.73
2019-05-02T02:17:19.329Z,55.47
2019-05-02T02:19:51.684Z,51.60
2019-05-02T02:22:41.127Z,47.90
2019-05-02T02:25:32.222Z,51.20
2019-05-02T02:27:59.642Z,58.83
2019-05-02T02:30:26.856Z,51.53
2019-05-02T02:32:52.923Z,46.53
2019-05-02T02:35:19.321Z,43.83
2019-05-02T02:37:52.728Z,46.73
2019-05-02T02:40:14.066Z,48.70
2019-05-02T02:42:40.673Z,46.27
2019-05-02T02:45:18.803Z,54.97
2019-05-02T02:47:43.511Z,43.63
2019-05-02T02:50:10.293Z,50.97
2019-05-02T02:52:37.766Z,52.13
2019-05-02T02:55:05.247Z,48.13
2019-05-02T02:57:31.553Z,50.63
2019-05-02T03:00:06.363Z,49.03
2019-05-02T03:02:26.183Z,48.83
2019-05-02T03:04:52.568Z,51.87
2019-05-02T03:07:25.950Z,55.50
2019-05-02T03:09:48.250Z,51.43
2019-05-02T03:12:20.646Z,59.20
2019-05-02T03:14:49.538Z,50.33
2019-05-02T03:17:20.303Z,55.30
2019-05-02T03:19:44.861Z,59.23
2019-05-02T03:22:11.319Z,56.53
2019-05-02T03:24:44.154Z,58.17
2019-05-02T03:27:06.407Z,57.33
2019-05-02T03:29:40.580Z,58.03
2019-05-02T03:32:14.339Z,62.43
2019-05-02T03:34:45.393Z,58.83
2019-05-02T03:37:03.147Z,55.47
2019-05-02T03:39:26.572Z,60.23
2019-05-02T03:41:55.844Z,55.90
2019-05-02T03:44:25.795Z,61.00
2019-05-02T03:46:54.188Z,60.17
2019-05-02T03:49:18.553Z,60.97
2019-05-02T03:51:45.165Z,65.53
2019-05-02T03:54:12.599Z,66.50
2019-05-02T03:56:44.615Z,70.63
2019-05-02T03:59:07.145Z,65.50
2019-05-02T04:01:34.544Z,69.17
2019-05-02T04:04:02.900Z,63.60
2019-05-02T04:06:29.247Z,63.03
2019-05-02T04:09:00.157Z,65.93
2019-05-02T04:11:24.662Z,63.40
2019-05-02T04:13:52.476Z,65.67
2019-05-02T04:16:21.133Z,67.03
2019-05-02T04:18:54.659Z,63.17
2019-05-02T04:21:16.079Z,69.30
2019-05-02T04:23:43.286Z,66.73
2019-05-02T04:26:12.695Z,65.47
2019-05-02T04:28:38.215Z,61.00
2019-05-02T04:31:04.531Z,60.60
2019-05-02T04:33:34.669Z,67.80
2019-05-02T04:35:59.714Z,61.87
2019-05-02T04:38:41.771Z,67.10
2019-05-02T04:40:54.973Z,63.40
2019-05-02T04:43:22.417Z,64.20
2019-05-02T04:45:56.035Z,62.93
2019-05-02T04:48:18.496Z,70.10
2019-05-02T04:50:45.009Z,61.97
2019-05-02T04:53:11.351Z,59.03
2019-05-02T04:55:38.201Z,63.80
2019-05-02T04:58:04.713Z,62.40
2019-05-02T05:00:31.071Z,58.97
2019-05-02T05:02:58.023Z,56.50
2019-05-02T05:05:26.220Z,56.90
2019-05-02T05:07:52.851Z,54.70
2019-05-02T05:10:19.160Z,55.70
2019-05-02T05:12:45.508Z,58.53
2019-05-02T05:15:13.346Z,50.67
2019-05-02T05:17:40.100Z,57.43
2019-05-02T05:20:14.105Z,62.13
2019-05-02T05:22:36.531Z,59.30
2019-05-02T05:25:07.434Z,52.73
2019-05-02T05:27:34.105Z,54.83
2019-05-02T05:30:07.908Z,55.20
2019-05-02T05:32:29.786Z,59.47
2019-05-02T05:34:57.936Z,56.27
2019-05-02T05:37:24.633Z,52.10
2019-05-02T05:39:52.646Z,48.40
2019-05-02T05:42:23.325Z,51.70
2019-05-02T05:44:48.388Z,52.57
2019-05-02T05:47:19.726Z,55.90
2019-05-02T05:49:43.472Z,62.40
2019-05-02T05:52:09.823Z,61.17
2019-05-02T05:54:40.453Z,66.10
2019-05-02T05:57:04.514Z,62.47
2019-05-02T05:59:32.136Z,70.57
2019-05-02T06:01:59.972Z,61.83
2019-05-02T06:04:32.632Z,72.97
2019-05-02T06:06:59.455Z,62.63
2019-05-02T06:09:26.421Z,69.00
2019-05-02T06:11:55.381Z,66.93
2019-05-02T06:14:19.892Z,68.83
2019-05-02T06:16:51.777Z,67.37
2019-05-02T06:19:17.966Z,67.77
2019-05-02T06:21:45.256Z,75.40
2019-05-02T06:24:15.805Z,75.13
2019-05-02T06:26:44.701Z,72.53
2019-05-02T06:29:13.024Z,77.33
2019-05-02T06:31:38.208Z,70.80
2019-05-02T06:34:07.152Z,79.03
2019-05-02T06:36:36.824Z,69.17
2019-05-02T06:39:04.827Z,76.47
2019-05-02T06:41:31.851Z,81.33
2019-05-02T06:43:58.149Z,75.00
2019-05-02T06:46:27.496Z,76.83
2019-05-02T06:48:53.694Z,74.67
2019-05-02T06:51:21.107Z,79.80
2019-05-02T06:53:48.975Z,82.53
2019-05-02T06:56:15.529Z,79.50
2019-05-02T06:58:43.360Z,74.13
2019-05-02T07:01:09.785Z,76.43
2019-05-02T07:03:36.110Z,81.67
2019-05-02T07:06:04.210Z,74.23
2019-05-02T07:08:31.033Z,76.00
2019-05-02T07:11:01.258Z,74.80
2019-05-02T07:13:26.010Z,81.33
2019-05-02T07:15:58.258Z,76.17
2019-05-02T07:18:32.524Z,75.17
2019-05-02T07:20:58.943Z,67.23
2019-05-02T07:23:25.380Z,66.67
2019-05-02T07:25:52.019Z,68.17
2019-05-02T07:28:18.412Z,63.70
2019-05-02T07:30:44.752Z,64.53
2019-05-02T07:33:11.081Z,63.60
2019-05-02T07:35:37.385Z,63.30
2019-05-02T07:38:04.889Z,66.90
2019-05-02T07:40:32.314Z,72.63
2019-05-02T07:42:59.046Z,68.33
2019-05-02T07:45:25.425Z,78.07
2019-05-02T07:47:51.725Z,74.47
2019-05-02T07:50:18.551Z,70.07
2019-05-02T07:52:45.379Z,72.27
2019-05-02T07:55:11.923Z,76.10
2019-05-02T07:57:38.543Z,72.00
2019-05-02T08:00:09.835Z,69.83
2019-05-02T08:02:36.446Z,75.13
2019-05-02T08:05:04.853Z,76.00
2019-05-02T08:07:34.232Z,76.20
2019-05-02T08:09:59.453Z,75.67
2019-05-02T08:12:25.779Z,74.20
2019-05-02T08:14:52.093Z,77.17
2019-05-02T08:17:19.352Z,78.33
2019-05-02T08:19:45.911Z,77.23
2019-05-02T08:22:13.537Z,72.50
2019-05-02T08:24:40.609Z,80.67
2019-05-02T08:27:09.585Z,73.80
2019-05-02T08:29:37.456Z,70.73
2019-05-02T08:32:03.765Z,67.03
2019-05-02T08:34:33.132Z,69.50
2019-05-02T08:37:03.132Z,64.27
2019-05-02T08:39:33.092Z,59.90
2019-05-02T08:41:57.936Z,55.80
2019-05-02T08:44:24.756Z,61.53
2019-05-02T08:46:53.270Z,67.07
2019-05-02T08:49:20.128Z,53.93
2019-05-02T08:51:47.794Z,53.27
2019-05-02T08:54:14.105Z,55.87
2019-05-02T08:56:40.515Z,55.73
2019-05-02T08:59:07.142Z,55.43
2019-05-02T09:01:35.227Z,61.60
2019-05-02T09:04:01.877Z,54.37
2019-05-02T09:06:28.248Z,57.00
2019-05-02T09:08:55.706Z,55.93
2019-05-02T09:11:22.064Z,55.30
2019-05-02T09:13:48.713Z,60.23
2019-05-02T09:16:15.349Z,50.53
2019-05-02T09:18:50.607Z,45.80
2019-05-02T09:21:10.119Z,51.43
2019-05-02T09:23:37.494Z,49.70
2019-05-02T09:26:06.502Z,50.03
2019-05-02T09:28:33.133Z,52.43
2019-05-02T09:31:04.978Z,46.47
2019-05-02T09:33:27.700Z,43.63
2019-05-02T09:35:54.414Z,45.67
2019-05-02T09:38:22.221Z,47.23
2019-05-02T09:40:54.504Z,45.40
2019-05-02T09:43:17.223Z,51.90
2019-05-02T09:45:44.048Z,51.53
2019-05-02T09:48:12.561Z,50.40
2019-05-02T09:50:41.981Z,47.03
2019-05-02T09:53:13.220Z,42.67
2019-05-02T09:55:43.809Z,48.03
2019-05-02T09:58:10.348Z,48.00
2019-05-02T10:00:55.058Z,38.77
2019-05-02T10:03:22.600Z,45.93
2019-05-02T10:05:49.196Z,50.30
2019-05-02T10:08:15.614Z,49.23
2019-05-02T10:10:45.882Z,55.20
2019-05-02T10:13:12.226Z,49.97
2019-05-02T10:15:39.383Z,48.97
2019-05-02T10:18:11.066Z,45.17
2019-05-02T10:20:36.486Z,44.60
2019-05-02T10:23:03.634Z,45.57
2019-05-02T10:25:37.925Z,51.87
2019-05-02T10:27:58.769Z,51.03
2019-05-02T10:30:27.178Z,47.20
2019-05-02T10:32:57.283Z,52.07
2019-05-02T10:35:28.128Z,51.33
2019-05-02T10:37:52.346Z,47.90
2019-05-02T10:40:18.809Z,48.67
2019-05-02T10:42:45.109Z,49.07
2019-05-02T10:45:13.054Z,48.33
2019-05-02T10:47:41.875Z,50.63
2019-05-02T10:50:11.841Z,47.40
2019-05-02T10:52:38.154Z,51.00
2019-05-02T10:55:05.590Z,48.93
2019-05-02T10:57:32.656Z,52.30
2019-05-02T11:00:00.183Z,45.73
2019-05-02T11:02:28.786Z,43.70
2019-05-02T11:04:57.306Z,50.23
2019-05-02T11:07:26.369Z,47.67
2019-05-02T11:09:52.553Z,50.50
2019-05-02T11:12:25.523Z,48.87
2019-05-02T11:14:53.746Z,46.40
2019-05-02T11:17:22.674Z,52.10
2019-05-02T11:19:53.989Z,45.50
2019-05-02T11:22:20.356Z,41.03
2019-05-02T11:24:46.727Z,47.83
2019-05-02T11:27:13.113Z,44.30
2019-05-02T11:29:39.446Z,46.33
2019-05-02T11:32:05.795Z,39.60
2019-05-02T11:34:32.656Z,42.93
2019-05-02T11:36:59.144Z,39.57
2019-05-02T11:39:32.762Z,45.17
2019-05-02T11:41:53.766Z,43.67
2019-05-02T11:44:22.056Z,40.30
2019-05-02T11:46:48.436Z,38.00
2019-05-02T11:49:15.304Z,37.57
2019-05-02T11:51:42.314Z,41.73
2019-05-02T11:54:09.460Z,40.23
2019-05-02T11:56:36.207Z,44.20
2019-05-02T11:59:03.078Z,33.17
2019-05-02T12:01:37.320Z,39.30
2019-05-02T12:03:57.740Z,40.50
2019-05-02T12:06:24.117Z,30.57
2019-05-02T12:08:52.487Z,35.03
2019-05-02T12:11:19.134Z,33.30
2019-05-02T12:13:50.262Z,34.13
2019-05-02T12:16:13.927Z,34.30
2019-05-02T12:18:41.896Z,29.70
2019-05-02T12:21:09.037Z,30.80
2019-05-02T12:23:36.397Z,26.40
2019-05-02T12:26:04.038Z,30.67
2019-05-02T12:28:32.272Z,27.93
2019-05-02T12:30:58.663Z,26.63
2019-05-02T12:33:26.902Z,27.77
2019-05-02T12:35:54.299Z,24.80
2019-05-02T12:38:22.911Z,30.27
2019-05-02T12:40:48.954Z,26.60
2019-05-02T12:43:15.726Z,25.47
2019-05-02T12:45:42.351Z,25.57
2019-05-02T12:48:08.751Z,27.70
2019-05-02T12:50:35.182Z,28.30
2019-05-02T12:53:02.945Z,30.77
2019-05-02T12:55:29.466Z,26.27
2019-05-02T12:57:55.771Z,28.50
2019-05-02T13:00:22.419Z,30.17
2019-05-02T13:02:48.840Z,24.93
2019-05-02T13:05:15.500Z,29.60
2019-05-02T13:07:49.876Z,32.90
2019-05-02T13:10:14.468Z,30.80
2019-05-02T13:12:42.934Z,28.03
2019-05-02T13:15:09.788Z,28.70
2019-05-02T13:17:48.457Z,28.77
2019-05-02T13:20:08.089Z,28.73
2019-05-02T13:22:43.539Z,28.70
2019-05-02T13:25:13.078Z,28.27
2019-05-02T13:27:45.980Z,27.30
2019-05-02T13:30:12.395Z,22.83
2019-05-02T13:32:42.712Z,23.00
2019-05-02T13:35:14.849Z,28.43
2019-05-02T13:37:42.524Z,26.67
2019-05-02T13:40:12.107Z,25.80
2019-05-02T13:42:38.705Z,23.43
2019-05-02T13:45:07.785Z,25.33
2019-05-02T13:47:34.142Z,24.23
2019-05-02T13:50:03.570Z,23.97
2019-05-02T13:52:29.456Z,26.47
2019-05-02T13:54:55.908Z,26.50
2019-05-02T13:57:22.308Z,25.93
2019-05-02T13:59:48.638Z,25.50
2019-05-02T14:02:38.894Z,25.43
2019-05-02T14:05:12.797Z,27.10
2019-05-02T14:07:42.925Z,25.60
2019-05-02T14:10:16.496Z,24.53
2019-05-02T14:12:45.910Z,28.03
2019-05-02T14:15:15.178Z,27.60
2019-05-02T14:17:42.324Z,27.53
2019-05-02T14:20:11.594Z,31.20
2019-05-02T14:22:37.398Z,36.17
2019-05-02T14:25:04.659Z,26.90
2019-05-02T14:27:32.047Z,31.30
2019-05-02T14:29:59.022Z,30.37
2019-05-02T14:32:26.852Z,28.40
2019-05-02T14:34:56.121Z,28.83
2019-05-02T14:37:22.785Z,26.73
2019-05-02T14:39:52.433Z,22.47
2019-05-02T14:42:24.381Z,27.27
2019-05-02T14:45:04.281Z,21.83
2019-05-02T14:47:19.581Z,22.93
2019-05-02T14:49:44.744Z,23.90
2019-05-02T14:52:12.641Z,20.57
2019-05-02T14:54:43.740Z,16.77
2019-05-02T14:57:11.924Z,18.20
2019-05-02T14:59:42.724Z,16.90
2019-05-02T15:02:13.087Z,13.03
2019-05-02T15:04:44.695Z,14.13
2019-05-02T15:07:08.092Z,14.10
2019-05-02T15:09:36.162Z,13.10
2019-05-02T15:12:08.218Z,14.30
2019-05-02T15:14:35.736Z,11.90
2019-05-02T15:17:03.606Z,9.30
2019-05-02T15:19:29.982Z,8.60
2019-05-02T15:21:56.564Z,14.70
2019-05-02T15:24:23.150Z,13.17
2019-05-02T15:26:49.515Z,12.60
2019-05-02T15:29:19.643Z,17.93
2019-05-02T15:31:46.047Z,23.10
2019-05-02T15:34:20.266Z,24.20
2019-05-02T15:36:46.635Z,25.33
2019-05-02T15:41:44.801Z,29.83
2019-05-02T15:44:09.893Z,27.40
2019-05-02T15:46:36.388Z,29.80
2019-05-02T15:49:05.709Z,30.03
2019-05-02T15:51:32.898Z,28.73
2019-05-02T15:54:07.659Z,29.63
2019-05-02T15:56:29.703Z,24.37
2019-05-02T15:58:58.091Z,27.73
2019-05-02T16:01:26.325Z,32.43
2019-05-02T16:03:54.753Z,28.07
2019-05-02T16:06:31.624Z,22.73
2019-05-02T16:08:55.886Z,32.40
2019-05-02T16:11:23.015Z,29.77
2019-05-02T16:13:55.661Z,24.87
2019-05-02T16:16:27.606Z,25.00
2019-05-02T16:18:54.094Z,27.17
2019-05-02T16:21:32.593Z,25.30
2019-05-02T16:24:17.701Z,22.87
2019-05-02T16:26:46.713Z,23.63
2019-05-02T16:32:38.670Z,22.67
2019-05-02T16:35:12.870Z,29.10
2019-05-02T16:37:36.089Z,21.57
2019-05-02T16:40:06.562Z,23.70
2019-05-02T16:42:33.095Z,23.00
2019-05-02T16:45:02.421Z,20.07
2019-05-02T16:47:29.309Z,18.50
2019-05-02T16:49:56.604Z,20.03
2019-05-02T16:52:23.390Z,17.87
2019-05-02T16:54:50.132Z,16.50
2019-05-02T16:57:21.735Z,18.40
2019-05-02T16:59:45.189Z,17.33
2019-05-02T17:02:12.153Z,20.17
2019-05-02T17:04:38.841Z,22.67
2019-05-02T17:07:07.411Z,18.47
2019-05-02T17:09:42.432Z,18.03
2019-05-02T17:12:11.897Z,19.57
2019-05-02T17:14:37.895Z,23.43
2019-05-02T17:17:04.390Z,20.40
2019-05-02T17:19:34.793Z,22.33
2019-05-02T17:22:02.607Z,19.97
2019-05-02T17:24:29.166Z,19.80
2019-05-02T17:26:56.019Z,19.40
2019-05-02T17:29:22.706Z,23.87
2019-05-02T17:31:57.371Z,22.73
2019-05-02T17:34:24.484Z,25.53
2019-05-02T17:36:48.907Z,26.53
2019-05-02T17:39:15.265Z,25.13
2019-05-02T17:41:45.603Z,28.13
2019-05-02T17:44:12.849Z,27.73
2019-05-02T17:46:39.283Z,23.40
2019-05-02T17:49:05.889Z,33.43
2019-05-02T17:51:37.719Z,26.60
2019-05-02T17:54:03.093Z,28.30
2019-05-02T17:56:29.775Z,26.50
2019-05-02T17:58:58.324Z,25.30
2019-05-02T18:01:30.592Z,25.83
2019-05-02T18:03:54.730Z,27.00
2019-05-02T18:06:32.358Z,22.47
2019-05-02T18:08:53.633Z,24.90
2019-05-02T18:11:18.968Z,28.37
2019-05-02T18:13:45.340Z,23.40
2019-05-02T18:16:15.088Z,30.07
2019-05-02T18:18:43.694Z,25.80
2019-05-02T18:21:08.559Z,28.23
2019-05-02T18:23:35.491Z,33.30
2019-05-02T18:26:05.029Z,26.17
2019-05-02T18:28:30.317Z,23.70
2019-05-02T18:30:57.306Z,23.03
2019-05-02T18:33:25.243Z,31.83
2019-05-02T18:35:52.630Z,29.43
2019-05-02T18:38:20.933Z,30.27
2019-05-02T18:40:52.166Z,27.63
2019-05-02T18:43:19.597Z,32.13
2019-05-02T18:45:45.985Z,23.13
2019-05-02T18:48:12.791Z,28.67
2019-05-02T18:50:46.164Z,29.97
2019-05-02T18:53:10.416Z,26.53
2019-05-02T18:55:37.812Z,30.80
2019-05-02T18:58:05.787Z,33.67
2019-05-02T19:00:39.498Z,26.87
2019-05-02T19:03:07.514Z,24.40
2019-05-02T19:05:34.687Z,28.33
2019-05-02T19:08:02.475Z,30.03
2019-05-02T19:10:32.214Z,31.87
2019-05-02T19:13:01.125Z,31.73
2019-05-02T19:15:27.660Z,26.83
2019-05-02T19:17:55.234Z,31.50
2019-05-02T19:20:32.588Z,28.93
2019-05-02T19:22:59.485Z,31.43
2019-05-02T19:25:26.476Z,26.40
2019-05-02T19:28:12.229Z,29.53
2019-05-02T19:30:42.383Z,30.93
2019-05-02T19:33:12.005Z,36.30
2019-05-02T19:35:43.239Z,34.93
2019-05-02T19:38:06.618Z,33.90
2019-05-02T19:40:34.812Z,29.20
2019-05-02T19:43:05.958Z,32.63
2019-05-02T19:45:32.584Z,28.13
2019-05-02T19:47:59.449Z,33.20
2019-05-02T19:50:38.564Z,36.10
2019-05-02T19:53:02.036Z,26.80
2019-05-02T19:55:32.124Z,35.83
2019-05-02T19:58:02.344Z,29.37
2019-05-02T20:00:31.798Z,28.77
2019-05-02T20:02:58.641Z,28.10
2019-05-02T20:05:25.771Z,32.97
2019-05-02T20:07:52.418Z,29.47
2019-05-02T20:10:22.423Z,32.63
2019-05-02T20:12:50.937Z,26.43
2019-05-02T20:15:22.748Z,24.87
2019-05-02T20:17:47.956Z,23.53
2019-05-02T20:21:06.668Z,24.93
2019-05-02T20:23:35.521Z,26.13
2019-05-02T20:26:01.585Z,22.03
2019-05-02T20:28:28.034Z,21.63
2019-05-02T20:30:54.464Z,24.47
2019-05-02T20:33:22.277Z,18.97
2019-05-02T20:35:48.900Z,18.33
2019-05-02T20:38:16.750Z,17.20
2019-05-02T20:40:43.112Z,18.43
2019-05-02T20:43:09.512Z,18.93
2019-05-02T20:45:36.298Z,19.40
2019-05-02T20:48:03.688Z,16.23
2019-05-02T20:50:31.750Z,14.07
2019-05-02T20:52:58.287Z,15.40
2019-05-02T20:55:24.619Z,20.03
2019-05-02T20:57:52.671Z,15.17
2019-05-02T21:00:27.038Z,20.30
2019-05-02T21:02:53.425Z,17.07
2019-05-02T21:05:23.870Z,16.03
2019-05-02T21:07:55.165Z,15.50
2019-05-02T21:10:23.466Z,19.30
2019-05-02T21:12:52.670Z,18.33
2019-05-02T21:15:19.158Z,14.17
2019-05-02T21:17:45.602Z,17.53
2019-05-02T21:20:12.543Z,16.77
2019-05-02T21:22:39.533Z,14.80
2019-05-02T21:25:06.144Z,15.10
2019-05-02T21:27:32.578Z,20.60
2019-05-02T21:29:58.922Z,17.57
2019-05-02T21:32:25.248Z,17.83
2019-05-02T21:34:51.989Z,14.43
2019-05-02T21:37:18.603Z,16.50
2019-05-02T21:39:46.063Z,18.27
2019-05-02T21:42:13.486Z,13.93
2019-05-02T21:44:42.121Z,22.53
2019-05-02T21:47:08.597Z,13.07
2019-05-02T21:49:39.547Z,14.03
2019-05-02T21:52:20.116Z,15.13
2019-05-02T21:55:03.648Z,22.70
2019-05-02T21:57:32.061Z,14.13
2019-05-02T21:59:58.319Z,16.63
2019-05-02T22:02:24.894Z,17.67
2019-05-02T22:04:53.212Z,17.23
2019-05-02T22:07:21.691Z,14.60
2019-05-02T22:09:48.098Z,17.03
2019-05-02T22:12:14.446Z,19.33
2019-05-02T22:14:42.146Z,18.57
2019-05-02T22:17:08.733Z,20.43
2019-05-02T22:19:35.066Z,17.53
2019-05-02T22:22:01.675Z,23.00
2019-05-02T22:24:28.133Z,18.30
2019-05-02T22:26:54.454Z,17.87
2019-05-02T22:29:21.830Z,19.87
2019-05-02T22:31:48.414Z,21.80
2019-05-02T22:34:15.148Z,22.77
2019-05-02T22:36:42.468Z,23.00
2019-05-02T22:39:13.906Z,25.67
2019-05-02T22:41:41.977Z,23.47
2019-05-02T22:44:08.664Z,23.67
2019-05-02T22:46:43.563Z,24.50
2019-05-02T22:49:14.733Z,27.90
2019-05-02T22:51:42.733Z,24.80
2019-05-02T22:54:23.768Z,21.60
2019-05-02T22:56:37.517Z,23.83
2019-05-02T22:59:04.472Z,25.93
2019-05-02T23:01:32.377Z,28.07
2019-05-02T23:03:58.894Z,28.50
2019-05-02T23:06:25.530Z,27.73
2019-05-02T23:08:52.485Z,25.77
2019-05-02T23:11:19.363Z,30.57
2019-05-02T23:13:45.665Z,28.83
2019-05-02T23:16:12.008Z,31.47
2019-05-02T23:18:38.358Z,33.10
2019-05-02T23:21:05.116Z,32.43
2019-05-02T23:23:32.785Z,31.47
2019-05-02T23:26:12.848Z,26.10
2019-05-02T23:28:42.227Z,31.60
2019-05-02T23:31:09.007Z,30.10
2019-05-02T23:33:53.673Z,37.47
2019-05-02T23:36:20.038Z,32.93
2019-05-02T23:38:46.377Z,37.30
2019-05-02T23:41:12.771Z,36.63
2019-05-02T23:43:39.167Z,32.47
2019-05-02T23:46:05.911Z,36.40
2019-05-02T23:48:32.607Z,36.30
2019-05-02T23:50:59.154Z,31.80
2019-05-02T23:53:25.501Z,38.87
2019-05-02T23:55:52.229Z,38.70
2019-05-02T23:58:18.579Z,31.37
